createdAt,value
2022-08-09T00:00:34.764Z,102315.25
2022-08-09T00:04:03.692Z,102315.25
2022-08-09T00:06:19.384Z,102315.09
2022-08-09T00:08:57.496Z,102315.00
2022-08-09T00:11:58.708Z,102314.78
2022-08-09T00:14:36.609Z,102315.50
2022-08-09T00:18:04.586Z,102316.94
2022-08-09T00:20:06.049Z,102314.88
2022-08-09T00:22:39.155Z,102316.91
2022-08-09T00:25:13.061Z,102321.06
2022-08-09T00:27:48.275Z,102320.06
2022-08-09T00:30:25.423Z,102323.69
2022-08-09T00:32:59.863Z,102321.16
2022-08-09T00:35:43.034Z,102325.69
2022-08-09T00:38:16.836Z,102326.41
2022-08-09T00:40:54.706Z,102325.41
2022-08-09T00:44:13.562Z,102330.94
2022-08-09T00:46:28.376Z,102337.09
2022-08-09T00:49:20.656Z,102333.47
2022-08-09T00:51:56.262Z,102333.38
2022-08-09T00:54:31.367Z,102326.31
2022-08-09T00:57:11.062Z,102338.50
2022-08-09T00:59:52.515Z,102325.28
2022-08-09T01:02:29.260Z,102330.53
2022-08-09T01:05:14.402Z,102319.94
2022-08-09T01:08:00.353Z,102324.81
2022-08-09T01:10:40.168Z,102330.31
2022-08-09T01:13:22.397Z,102330.00
2022-08-09T01:15:59.070Z,102321.09
2022-08-09T01:18:33.624Z,102331.63
2022-08-09T01:21:20.369Z,102328.59
2022-08-09T01:24:04.855Z,102320.44
2022-08-09T01:27:00.981Z,102322.16
2022-08-09T01:29:41.034Z,102321.44
2022-08-09T01:32:46.101Z,102315.09
2022-08-09T01:35:37.593Z,102322.69
2022-08-09T01:38:16.943Z,102319.69
2022-08-09T01:41:05.175Z,102325.28
2022-08-09T01:43:51.672Z,102316.69
2022-08-09T01:46:29.535Z,102321.13
2022-08-09T01:49:10.614Z,102315.19
2022-08-09T01:51:54.166Z,102318.72
2022-08-09T01:54:32.839Z,102321.25
2022-08-09T01:57:09.650Z,102314.97
2022-08-09T01:59:51.570Z,102322.75
2022-08-09T02:02:30.090Z,102328.00
2022-08-09T02:05:15.355Z,102327.78
2022-08-09T02:08:39.435Z,102329.13
2022-08-09T02:10:51.241Z,102322.34
2022-08-09T02:13:37.733Z,102322.94
2022-08-09T02:16:15.942Z,102323.84
2022-08-09T02:18:49.142Z,102321.56
2022-08-09T02:21:24.557Z,102323.38
2022-08-09T02:24:04.753Z,102324.97
2022-08-09T02:26:40.005Z,102332.97
2022-08-09T02:29:19.793Z,102328.53
2022-08-09T02:32:00.221Z,102335.25
2022-08-09T02:34:41.704Z,102333.78
2022-08-09T02:37:31.802Z,102339.13
2022-08-09T02:40:10.365Z,102333.66
2022-08-09T02:42:51.245Z,102327.00
2022-08-09T02:45:28.727Z,102333.34
2022-08-09T02:48:12.297Z,102326.28
2022-08-09T02:51:02.666Z,102326.38
2022-08-09T02:53:39.131Z,102325.59
2022-08-09T02:56:18.078Z,102320.44
2022-08-09T02:58:55.429Z,102329.22
2022-08-09T03:01:42.859Z,102334.16
2022-08-09T03:04:28.795Z,102333.72
2022-08-09T03:07:12.164Z,102324.75
2022-08-09T03:09:54.381Z,102322.84
2022-08-09T03:12:31.100Z,102321.72
2022-08-09T03:15:06.028Z,102326.75
2022-08-09T03:17:43.593Z,102329.66
2022-08-09T03:20:19.044Z,102326.22
2022-08-09T03:22:58.447Z,102334.28
2022-08-09T03:25:58.435Z,102337.84
2022-08-09T03:28:38.515Z,102343.78
2022-08-09T03:31:21.252Z,102339.94
2022-08-09T03:33:58.148Z,102337.31
2022-08-09T03:36:32.879Z,102338.50
2022-08-09T03:39:07.027Z,102339.22
2022-08-09T03:41:48.257Z,102339.78
2022-08-09T03:44:22.403Z,102340.13
2022-08-09T03:47:05.303Z,102342.84
2022-08-09T03:49:42.021Z,102341.13
2022-08-09T03:52:34.657Z,102345.47
2022-08-09T03:55:10.756Z,102345.47
2022-08-09T03:58:03.479Z,102349.91
2022-08-09T04:00:43.919Z,102341.94
2022-08-09T04:03:24.700Z,102345.38
2022-08-09T04:06:09.458Z,102339.13
2022-08-09T04:08:46.765Z,102342.66
2022-08-09T04:11:19.851Z,102338.31
2022-08-09T04:14:54.020Z,102347.09
2022-08-09T04:16:45.746Z,102351.31
2022-08-09T04:19:30.305Z,102345.16
2022-08-09T04:22:13.196Z,102347.94
2022-08-09T04:24:47.720Z,102348.03
2022-08-09T04:27:22.500Z,102345.16
2022-08-09T04:29:55.580Z,102340.22
2022-08-09T04:32:31.472Z,102341.44
2022-08-09T04:35:08.512Z,102345.28
2022-08-09T04:37:46.470Z,102338.31
2022-08-09T04:40:36.083Z,102347.19
2022-08-09T04:43:09.242Z,102350.16
2022-08-09T04:45:53.690Z,102356.53
2022-08-09T04:48:33.213Z,102357.84
2022-08-09T04:51:06.764Z,102364.00
2022-08-09T04:53:42.931Z,102363.91
2022-08-09T04:56:20.026Z,102366.50
2022-08-09T04:58:58.908Z,102366.50
2022-08-09T05:01:32.611Z,102362.19
2022-08-09T05:04:06.440Z,102362.69
2022-08-09T05:06:40.152Z,102367.56
2022-08-09T05:09:17.157Z,102372.50
2022-08-09T05:11:51.488Z,102379.16
2022-08-09T05:14:26.908Z,102379.31
2022-08-09T05:17:00.012Z,102380.22
2022-08-09T05:19:45.957Z,102383.34
2022-08-09T05:22:35.971Z,102390.91
2022-08-09T05:25:15.128Z,102396.47
2022-08-09T05:27:50.737Z,102394.25
2022-08-09T05:30:23.796Z,102398.78
2022-08-09T05:33:02.989Z,102397.38
2022-08-09T05:35:46.688Z,102401.34
2022-08-09T05:38:23.018Z,102410.44
2022-08-09T05:41:00.852Z,102401.44
2022-08-09T05:43:36.333Z,102406.53
2022-08-09T05:46:10.691Z,102408.84
2022-08-09T05:48:44.167Z,102411.81
2022-08-09T05:51:41.704Z,102399.88
2022-08-09T05:54:14.985Z,102408.63
2022-08-09T05:56:54.887Z,102412.59
2022-08-09T05:59:31.014Z,102418.53
2022-08-09T06:02:05.349Z,102418.88
2022-08-09T06:04:44.741Z,102418.31
2022-08-09T06:07:21.677Z,102430.78
2022-08-09T06:10:02.763Z,102432.03
2022-08-09T06:12:36.045Z,102428.38
2022-08-09T06:15:12.865Z,102434.84
2022-08-09T06:17:47.515Z,102435.78
2022-08-09T06:20:20.760Z,102436.50
2022-08-09T06:22:54.037Z,102432.69
2022-08-09T06:25:27.192Z,102440.88
2022-08-09T06:28:00.272Z,102436.84
2022-08-09T06:30:36.809Z,102434.41
2022-08-09T06:33:30.615Z,102439.78
2022-08-09T06:36:02.991Z,102433.03
2022-08-09T06:38:47.251Z,102430.13
2022-08-09T06:41:23.302Z,102433.28
2022-08-09T06:44:18.071Z,102440.94
2022-08-09T06:46:55.202Z,102438.94
2022-08-09T06:49:44.884Z,102439.78
2022-08-09T06:52:23.578Z,102453.53
2022-08-09T06:54:58.189Z,102460.91
2022-08-09T06:58:01.573Z,102448.22
2022-08-09T07:00:49.652Z,102459.19
2022-08-09T07:03:20.149Z,102456.84
2022-08-09T07:06:03.561Z,102453.28
2022-08-09T07:08:39.423Z,102461.69
2022-08-09T07:11:12.949Z,102457.56
2022-08-09T07:14:04.244Z,102455.19
2022-08-09T07:16:44.711Z,102462.44
2022-08-09T07:19:23.917Z,102459.38
2022-08-09T07:21:59.773Z,102462.75
2022-08-09T07:24:40.205Z,102461.25
2022-08-09T07:27:26.321Z,102468.63
2022-08-09T07:30:06.789Z,102462.34
2022-08-09T07:32:41.091Z,102464.06
2022-08-09T07:35:16.730Z,102457.88
2022-08-09T07:37:52.080Z,102464.44
2022-08-09T07:40:37.378Z,102467.78
2022-08-09T07:43:20.384Z,102462.19
2022-08-09T07:46:03.044Z,102459.38
2022-08-09T07:48:36.240Z,102466.47
2022-08-09T07:52:06.333Z,102466.75
2022-08-09T07:54:08.730Z,102467.72
2022-08-09T07:56:49.248Z,102470.44
2022-08-09T07:59:45.625Z,102472.25
2022-08-09T08:02:19.184Z,102476.38
2022-08-09T08:04:53.849Z,102486.09
2022-08-09T08:08:43.575Z,102477.38
2022-08-09T08:10:21.844Z,102481.19
2022-08-09T08:13:00.434Z,102479.31
2022-08-09T08:15:37.589Z,102482.75
2022-08-09T08:18:14.426Z,102472.41
2022-08-09T08:20:47.660Z,102477.69
2022-08-09T08:23:22.068Z,102479.91
2022-08-09T08:26:08.112Z,102478.28
2022-08-09T08:28:45.361Z,102481.56
2022-08-09T08:31:18.482Z,102479.13
2022-08-09T08:33:53.099Z,102486.94
2022-08-09T08:36:30.770Z,102501.66
2022-08-09T08:39:05.783Z,102508.06
2022-08-09T08:41:50.606Z,102512.56
2022-08-09T08:44:29.387Z,102516.25
2022-08-09T08:47:12.238Z,102507.56
2022-08-09T08:49:51.138Z,102491.56
2022-08-09T08:52:57.413Z,102496.47
2022-08-09T08:55:23.434Z,102494.41
2022-08-09T08:57:58.288Z,102492.19
2022-08-09T09:00:34.210Z,102489.34
2022-08-09T09:03:08.230Z,102495.47
2022-08-09T09:06:03.252Z,102497.31
2022-08-09T09:08:42.405Z,102483.13
2022-08-09T09:11:19.838Z,102490.94
2022-08-09T09:13:58.620Z,102485.78
2022-08-09T09:16:34.699Z,102485.28
2022-08-09T09:22:11.897Z,102473.66
2022-08-09T09:24:47.679Z,102473.25
2022-08-09T09:28:05.075Z,102480.00
2022-08-09T09:30:40.164Z,102483.00
2022-08-09T09:33:17.340Z,102486.13
2022-08-09T09:36:02.626Z,102490.03
2022-08-09T09:38:48.321Z,102491.28
2022-08-09T09:41:49.089Z,102489.41
2022-08-09T09:44:31.612Z,102487.72
2022-08-09T09:47:08.501Z,102483.97
2022-08-09T09:50:14.457Z,102481.72
2022-08-09T09:52:37.254Z,102491.75
2022-08-09T09:55:24.077Z,102493.09
2022-08-09T09:58:16.385Z,102488.47
2022-08-09T10:00:59.685Z,102491.44
2022-08-09T10:03:57.836Z,102493.72
2022-08-09T10:06:42.357Z,102495.81
2022-08-09T10:09:22.301Z,102491.09
2022-08-09T10:12:14.230Z,102487.88
2022-08-09T10:15:04.807Z,102485.47
2022-08-09T10:17:55.304Z,102486.22
2022-08-09T10:20:32.520Z,102484.88
2022-08-09T10:23:20.162Z,102476.69
2022-08-09T10:26:06.307Z,102484.88
2022-08-09T10:28:48.805Z,102476.53
2022-08-09T10:34:32.823Z,102483.72
2022-08-09T10:37:09.759Z,102482.69
2022-08-09T10:39:49.279Z,102476.28
2022-08-09T10:42:26.913Z,102474.19
2022-08-09T10:45:04.403Z,102469.91
2022-08-09T10:48:26.626Z,102465.78
2022-08-09T10:51:12.108Z,102458.81
2022-08-09T10:54:04.801Z,102472.06
2022-08-09T10:56:40.307Z,102463.47
2022-08-09T10:59:43.264Z,102473.72
2022-08-09T11:03:11.918Z,102473.47
2022-08-09T11:05:31.603Z,102468.31
2022-08-09T11:08:35.236Z,102468.84
2022-08-09T11:11:19.647Z,102474.03
2022-08-09T11:14:32.028Z,102469.16
2022-08-09T11:17:53.317Z,102463.13
2022-08-09T11:20:49.656Z,102463.81
2022-08-09T11:23:30.236Z,102457.38
2022-08-09T11:26:04.106Z,102457.47
2022-08-09T11:28:55.815Z,102455.44
2022-08-09T11:31:49.043Z,102448.31
2022-08-09T11:34:33.689Z,102449.06
2022-08-09T11:37:18.269Z,102446.16
2022-08-09T11:40:06.013Z,102443.59
2022-08-09T11:42:40.888Z,102445.91
2022-08-09T11:45:42.597Z,102441.34
2022-08-09T11:48:26.828Z,102446.97
2022-08-09T11:52:49.360Z,102440.25
2022-08-09T11:54:28.264Z,102445.84
2022-08-09T11:57:47.949Z,102437.53
2022-08-09T12:00:33.712Z,102426.97
2022-08-09T12:03:55.946Z,102430.50
2022-08-09T12:06:13.077Z,102423.38
2022-08-09T12:08:51.215Z,102428.41
2022-08-09T12:11:26.495Z,102418.00
2022-08-09T12:14:09.189Z,102420.31
2022-08-09T12:16:45.720Z,102415.47
2022-08-09T12:19:29.786Z,102414.75
2022-08-09T12:22:05.332Z,102415.41
2022-08-09T12:24:39.068Z,102413.00
2022-08-09T12:29:11.737Z,102406.63
2022-08-09T12:30:36.642Z,102414.66
2022-08-09T12:33:08.978Z,102409.28
2022-08-09T12:35:44.584Z,102409.47
2022-08-09T12:38:37.565Z,102405.25
2022-08-09T12:41:24.429Z,102407.91
2022-08-09T12:44:05.258Z,102400.28
2022-08-09T12:46:41.744Z,102394.31
2022-08-09T12:49:18.006Z,102400.78
2022-08-09T12:52:02.359Z,102398.66
2022-08-09T12:55:03.205Z,102394.13
2022-08-09T12:57:46.414Z,102397.88
2022-08-09T13:00:25.318Z,102390.50
2022-08-09T13:03:00.440Z,102390.63
2022-08-09T13:05:51.690Z,102379.22
2022-08-09T13:08:40.360Z,102388.84
2022-08-09T13:11:25.916Z,102384.28
2022-08-09T13:14:43.717Z,102381.09
2022-08-09T13:16:56.551Z,102385.66
2022-08-09T13:20:09.907Z,102380.53
2022-08-09T13:22:35.319Z,102387.13
2022-08-09T13:25:18.251Z,102380.56
2022-08-09T13:27:55.984Z,102381.75
2022-08-09T13:30:49.324Z,102373.53
2022-08-09T13:33:24.079Z,102375.03
2022-08-09T13:36:38.708Z,102375.84
2022-08-09T13:38:57.752Z,102380.41
2022-08-09T13:41:57.132Z,102372.06
2022-08-09T13:44:25.024Z,102368.66
2022-08-09T13:47:25.551Z,102373.66
2022-08-09T13:49:57.220Z,102376.34
2022-08-09T13:52:33.574Z,102373.59
2022-08-09T13:55:13.756Z,102374.63
2022-08-09T13:57:55.982Z,102373.19
2022-08-09T14:00:36.591Z,102365.72
2022-08-09T14:04:01.760Z,102358.94
2022-08-09T14:06:14.608Z,102367.47
2022-08-09T14:08:58.709Z,102354.13
2022-08-09T14:11:33.165Z,102362.25
2022-08-09T14:14:26.171Z,102357.16
2022-08-09T14:17:00.182Z,102357.88
2022-08-09T14:19:34.553Z,102351.53
2022-08-09T14:22:09.006Z,102358.47
2022-08-09T14:24:53.366Z,102368.63
2022-08-09T14:27:28.736Z,102369.47
2022-08-09T14:30:37.159Z,102371.19
2022-08-09T14:33:02.494Z,102363.72
2022-08-09T14:35:53.004Z,102360.00
2022-08-09T14:38:26.402Z,102368.81
2022-08-09T14:41:02.297Z,102371.56
2022-08-09T14:43:54.082Z,102368.09
2022-08-09T14:46:54.753Z,102369.50
2022-08-09T14:49:24.978Z,102379.44
2022-08-09T14:51:58.339Z,102373.56
2022-08-09T14:54:33.955Z,102371.06
2022-08-09T14:57:07.931Z,102371.34
2022-08-09T14:59:46.703Z,102378.75
2022-08-09T15:02:21.625Z,102377.94
2022-08-09T15:04:54.541Z,102376.03
2022-08-09T15:07:27.999Z,102383.06
2022-08-09T15:10:11.012Z,102374.06
2022-08-09T15:12:47.316Z,102365.81
2022-08-09T15:15:23.007Z,102371.78
2022-08-09T15:17:55.921Z,102374.59
2022-08-09T15:21:55.796Z,102363.47
2022-08-09T15:24:02.029Z,102363.97
2022-08-09T15:26:19.021Z,102363.63
2022-08-09T15:29:05.519Z,102362.63
2022-08-09T15:31:42.316Z,102363.47
2022-08-09T15:34:34.687Z,102357.03
2022-08-09T15:37:37.939Z,102363.16
2022-08-09T15:40:25.354Z,102360.38
2022-08-09T15:43:05.539Z,102352.41
2022-08-09T15:46:08.027Z,102354.38
2022-08-09T15:48:33.271Z,102341.44
2022-08-09T15:51:30.035Z,102343.31
2022-08-09T15:54:03.417Z,102342.78
2022-08-09T15:56:40.967Z,102339.09
2022-08-09T15:59:14.148Z,102341.00
2022-08-09T16:01:47.064Z,102344.69
2022-08-09T16:04:23.124Z,102337.50
2022-08-09T16:06:56.205Z,102346.38
2022-08-09T16:09:32.380Z,102344.75
2022-08-09T16:12:22.309Z,102346.50
2022-08-09T16:14:59.439Z,102334.25
2022-08-09T16:17:32.491Z,102336.41
2022-08-09T16:20:10.120Z,102325.59
2022-08-09T16:22:48.598Z,102336.22
2022-08-09T16:25:36.794Z,102328.69
2022-08-09T16:28:13.750Z,102330.03
2022-08-09T16:30:58.650Z,102321.91
2022-08-09T16:33:34.877Z,102326.00
2022-08-09T16:36:14.510Z,102319.34
2022-08-09T16:38:53.440Z,102325.22
2022-08-09T16:42:02.283Z,102326.84
2022-08-09T16:44:21.532Z,102324.22
2022-08-09T16:48:38.469Z,102322.31
2022-08-09T16:50:32.282Z,102327.63
2022-08-09T16:52:51.852Z,102332.94
2022-08-09T16:55:25.005Z,102322.53
2022-08-09T16:58:09.395Z,102331.91
2022-08-09T17:00:46.593Z,102328.06
2022-08-09T17:03:21.974Z,102332.56
2022-08-09T17:06:03.478Z,102334.06
2022-08-09T17:09:01.786Z,102341.72
2022-08-09T17:11:40.390Z,102343.44
2022-08-09T17:14:26.996Z,102348.72
2022-08-09T17:17:02.820Z,102337.03
2022-08-09T17:20:05.210Z,102339.38
2022-08-09T17:22:31.130Z,102347.09
2022-08-09T17:25:10.019Z,102346.09
2022-08-09T17:27:48.874Z,102350.34
2022-08-09T17:30:29.226Z,102354.03
2022-08-09T17:33:05.723Z,102352.91
2022-08-09T17:35:55.888Z,102354.63
2022-08-09T17:38:33.981Z,102352.56
2022-08-09T17:41:12.993Z,102357.56
2022-08-09T17:44:37.862Z,102355.91
2022-08-09T17:46:39.927Z,102361.06
2022-08-09T17:49:28.435Z,102358.00
2022-08-09T17:52:04.444Z,102356.16
2022-08-09T17:54:38.613Z,102364.00
2022-08-09T17:57:20.527Z,102362.94
2022-08-09T18:00:09.768Z,102355.63
2022-08-09T18:02:50.260Z,102367.81
2022-08-09T18:05:43.623Z,102371.41
2022-08-09T18:08:17.192Z,102379.03
2022-08-09T18:11:00.798Z,102377.34
2022-08-09T18:13:39.560Z,102381.53
2022-08-09T18:16:16.866Z,102381.16
2022-08-09T18:19:04.235Z,102380.44
2022-08-09T18:21:56.661Z,102373.91
2022-08-09T18:24:29.797Z,102375.59
2022-08-09T18:27:06.792Z,102378.16
2022-08-09T18:30:34.773Z,102375.84
2022-08-09T18:32:36.442Z,102377.47
2022-08-09T18:35:11.022Z,102381.75
2022-08-09T18:37:47.311Z,102376.06
2022-08-09T18:40:27.077Z,102383.22
2022-08-09T18:43:00.180Z,102376.66
2022-08-09T18:46:47.909Z,102382.75
2022-08-09T18:48:30.277Z,102379.13
2022-08-09T18:51:05.997Z,102384.69
2022-08-09T18:53:56.506Z,102383.88
2022-08-09T18:56:33.248Z,102379.22
2022-08-09T18:59:06.320Z,102383.31
2022-08-09T19:01:43.577Z,102377.38
2022-08-09T19:04:34.708Z,102375.69
2022-08-09T19:07:08.499Z,102371.91
2022-08-09T19:10:15.720Z,102373.34
2022-08-09T19:12:37.958Z,102378.19
2022-08-09T19:15:12.237Z,102378.19
2022-08-09T19:17:56.255Z,102389.41
2022-08-09T19:20:34.370Z,102380.94
2022-08-09T19:23:19.222Z,102377.25
2022-08-09T19:26:13.701Z,102377.72
2022-08-09T19:28:49.144Z,102380.94
2022-08-09T19:31:23.317Z,102383.25
2022-08-09T19:33:58.100Z,102375.25
2022-08-09T19:36:32.858Z,102386.41
2022-08-09T19:39:06.230Z,102391.72
2022-08-09T19:41:42.384Z,102399.50
2022-08-09T19:44:17.650Z,102402.91
2022-08-09T19:46:53.493Z,102397.09
2022-08-09T19:50:05.199Z,102402.19
2022-08-09T19:52:21.578Z,102396.72
2022-08-09T19:54:55.253Z,102401.97
2022-08-09T19:57:28.296Z,102407.91
2022-08-09T20:00:06.856Z,102411.19
2022-08-09T20:04:18.484Z,102409.97
2022-08-09T20:05:46.315Z,102417.72
2022-08-09T20:08:35.045Z,102427.19
2022-08-09T20:11:08.550Z,102427.91
2022-08-09T20:13:41.572Z,102436.59
2022-08-09T20:16:34.152Z,102434.72
2022-08-09T20:19:49.619Z,102428.31
2022-08-09T20:22:04.811Z,102431.63
2022-08-09T20:24:53.281Z,102432.31
2022-08-09T20:27:29.379Z,102429.38
2022-08-09T20:30:02.768Z,102427.66
2022-08-09T20:32:37.731Z,102422.72
2022-08-09T20:35:11.536Z,102430.44
2022-08-09T20:38:20.669Z,102435.44
2022-08-09T20:40:41.016Z,102436.91
2022-08-09T20:43:19.144Z,102428.72
2022-08-09T20:46:15.530Z,102425.84
2022-08-09T20:48:51.156Z,102430.09
2022-08-09T20:51:24.355Z,102424.56
2022-08-09T20:53:58.748Z,102424.44
2022-08-09T20:56:36.836Z,102428.63
2022-08-09T20:59:10.095Z,102423.91
2022-08-09T21:01:51.077Z,102422.84
2022-08-09T21:05:52.735Z,102431.38
2022-08-09T21:07:19.419Z,102431.16
2022-08-09T21:09:59.395Z,102418.78
2022-08-09T21:12:32.724Z,102417.63
2022-08-09T21:15:12.459Z,102422.91
2022-08-09T21:18:23.189Z,102431.66
2022-08-09T21:20:39.993Z,102434.75
2022-08-09T21:23:15.178Z,102441.47
2022-08-09T21:25:56.086Z,102441.53
2022-08-09T21:28:36.264Z,102440.44
2022-08-09T21:31:17.532Z,102442.09
2022-08-09T21:33:56.626Z,102440.81
2022-08-09T21:36:30.527Z,102446.00
2022-08-09T21:39:05.810Z,102443.97
2022-08-09T21:42:03.689Z,102450.81
2022-08-09T21:44:35.359Z,102445.03
2022-08-09T21:47:17.367Z,102444.72
2022-08-09T21:49:51.118Z,102442.81
2022-08-09T21:52:24.089Z,102442.53
2022-08-09T21:55:03.698Z,102441.56
2022-08-09T21:57:59.523Z,102446.63
2022-08-09T22:00:33.502Z,102442.94
2022-08-09T22:03:19.090Z,102446.22
2022-08-09T22:05:58.612Z,102440.72
2022-08-09T22:08:32.165Z,102444.72
2022-08-09T22:12:06.389Z,102438.13
2022-08-09T22:14:00.253Z,102431.03
2022-08-09T22:16:37.206Z,102425.75
2022-08-09T22:19:57.762Z,102430.88
2022-08-09T22:22:04.023Z,102433.44
2022-08-09T22:24:37.674Z,102435.81
2022-08-09T22:27:26.888Z,102433.19
2022-08-09T22:30:05.969Z,102432.91
2022-08-09T22:32:40.948Z,102437.09
2022-08-09T22:36:03.041Z,102430.84
2022-08-09T22:38:14.725Z,102431.34
2022-08-09T22:40:49.104Z,102435.44
2022-08-09T22:44:02.830Z,102435.16
2022-08-09T22:48:12.786Z,102432.53
2022-08-09T22:49:19.160Z,102435.72
2022-08-09T22:51:57.391Z,102437.19
2022-08-09T22:54:30.637Z,102430.03
2022-08-09T22:57:04.188Z,102432.28
2022-08-09T22:59:55.636Z,102429.31
2022-08-09T23:02:30.929Z,102427.28
2022-08-09T23:05:06.063Z,102419.94
2022-08-09T23:08:29.139Z,102430.13
2022-08-09T23:10:50.235Z,102425.75
2022-08-09T23:13:28.723Z,102424.50
2022-08-09T23:16:02.652Z,102421.50
2022-08-09T23:18:37.932Z,102419.53
2022-08-09T23:21:12.552Z,102418.63
2022-08-09T23:24:01.584Z,102418.41
2022-08-09T23:26:40.272Z,102417.31
2022-08-09T23:29:18.211Z,102411.78
2022-08-09T23:31:54.424Z,102415.97
2022-08-09T23:34:28.989Z,102418.44
2022-08-09T23:37:02.646Z,102418.44
2022-08-09T23:39:35.774Z,102424.34
2022-08-09T23:42:08.874Z,102430.44
2022-08-09T23:44:41.863Z,102422.53
2022-08-09T23:47:14.877Z,102436.88
2022-08-09T23:49:49.138Z,102436.13
2022-08-09T23:52:34.140Z,102426.88
2022-08-09T23:55:07.556Z,102433.56
2022-08-09T23:57:52.619Z,102432.41
